sensor_id;sensor_type;location;lat;lon;timestamp;temperature;humidity
64111;DHT22;50401;48.188;11.566;2023-06-10T00:02:26;19.17;64.85
64111;DHT22;50401;48.188;11.566;2023-06-10T00:04:52;19.08;65.22
64111;DHT22;50401;48.188;11.566;2023-06-10T00:07:18;19.08;65.28
64111;DHT22;50401;48.188;11.566;2023-06-10T00:09:43;19.06;65.52
64111;DHT22;50401;48.188;11.566;2023-06-10T00:12:09;18.99;65.87
64111;DHT22;50401;48.188;11.566;2023-06-10T00:14:37;19.00;65.91
64111;DHT22;50401;48.188;11.566;2023-06-10T00:17:03;18.86;66.44
64111;DHT22;50401;48.188;11.566;2023-06-10T00:19:28;18.77;66.67
64111;DHT22;50401;48.188;11.566;2023-06-10T00:21:57;18.76;66.81
64111;DHT22;50401;48.188;11.566;2023-06-10T00:24:22;18.68;67.05
64111;DHT22;50401;48.188;11.566;2023-06-10T00:26:48;18.71;67.14
64111;DHT22;50401;48.188;11.566;2023-06-10T00:29:13;18.59;67.47
64111;DHT22;50401;48.188;11.566;2023-06-10T00:31:39;18.65;67.37
64111;DHT22;50401;48.188;11.566;2023-06-10T00:34:05;18.61;67.54
64111;DHT22;50401;48.188;11.566;2023-06-10T00:36:30;18.54;67.74
64111;DHT22;50401;48.188;11.566;2023-06-10T00:39:00;18.56;67.82
64111;DHT22;50401;48.188;11.566;2023-06-10T00:41:26;18.48;68.02
64111;DHT22;50401;48.188;11.566;2023-06-10T00:43:52;18.51;67.97
64111;DHT22;50401;48.188;11.566;2023-06-10T00:46:17;18.51;68.09
64111;DHT22;50401;48.188;11.566;2023-06-10T00:48:44;18.52;68.11
64111;DHT22;50401;48.188;11.566;2023-06-10T00:51:10;18.45;68.28
64111;DHT22;50401;48.188;11.566;2023-06-10T00:53:40;18.31;68.77
64111;DHT22;50401;48.188;11.566;2023-06-10T00:56:06;18.26;68.97
64111;DHT22;50401;48.188;11.566;2023-06-10T00:58:32;18.16;69.30
64111;DHT22;50401;48.188;11.566;2023-06-10T01:00:57;18.14;69.44
64111;DHT22;50401;48.188;11.566;2023-06-10T01:03:23;18.07;69.68
64111;DHT22;50401;48.188;11.566;2023-06-10T01:06:00;17.99;69.97
64111;DHT22;50401;48.188;11.566;2023-06-10T01:10:57;17.96;70.04
64111;DHT22;50401;48.188;11.566;2023-06-10T01:13:25;17.99;70.16
64111;DHT22;50401;48.188;11.566;2023-06-10T01:15:54;17.90;70.46
64111;DHT22;50401;48.188;11.566;2023-06-10T01:18:20;17.85;70.67
64111;DHT22;50401;48.188;11.566;2023-06-10T01:20:47;17.82;70.79
64111;DHT22;50401;48.188;11.566;2023-06-10T01:23:14;17.85;70.87
64111;DHT22;50401;48.188;11.566;2023-06-10T01:25:43;17.89;70.88
64111;DHT22;50401;48.188;11.566;2023-06-10T01:28:17;17.93;70.71
64111;DHT22;50401;48.188;11.566;2023-06-10T01:31:15;17.97;70.67
64111;DHT22;50401;48.188;11.566;2023-06-10T01:33:45;18.09;70.40
64111;DHT22;50401;48.188;11.566;2023-06-10T01:36:12;18.13;70.28
64111;DHT22;50401;48.188;11.566;2023-06-10T01:38:46;18.06;70.58
64111;DHT22;50401;48.188;11.566;2023-06-10T01:41:14;17.62;71.77
64111;DHT22;50401;48.188;11.566;2023-06-10T01:43:40;17.19;73.60
64111;DHT22;50401;48.188;11.566;2023-06-10T01:46:07;16.95;74.16
64111;DHT22;50401;48.188;11.566;2023-06-10T01:48:33;16.64;75.34
64111;DHT22;50401;48.188;11.566;2023-06-10T01:50:58;16.54;75.64
64111;DHT22;50401;48.188;11.566;2023-06-10T01:53:24;16.53;75.84
64111;DHT22;50401;48.188;11.566;2023-06-10T01:55:49;16.64;75.72
64111;DHT22;50401;48.188;11.566;2023-06-10T01:58:15;16.63;75.84
64111;DHT22;50401;48.188;11.566;2023-06-10T02:00:40;16.67;75.50
64111;DHT22;50401;48.188;11.566;2023-06-10T02:03:05;16.67;75.84
64111;DHT22;50401;48.188;11.566;2023-06-10T02:05:31;16.68;75.88
64111;DHT22;50401;48.188;11.566;2023-06-10T02:07:56;16.74;75.62
64111;DHT22;50401;48.188;11.566;2023-06-10T02:10:22;16.88;75.35
64111;DHT22;50401;48.188;11.566;2023-06-10T02:12:47;16.95;75.38
64111;DHT22;50401;48.188;11.566;2023-06-10T02:15:12;17.03;74.80
64111;DHT22;50401;48.188;11.566;2023-06-10T02:17:38;16.78;75.57
64111;DHT22;50401;48.188;11.566;2023-06-10T02:20:04;16.68;76.07
64111;DHT22;50401;48.188;11.566;2023-06-10T02:22:32;16.54;76.49
64111;DHT22;50401;48.188;11.566;2023-06-10T02:24:57;16.71;76.06
64111;DHT22;50401;48.188;11.566;2023-06-10T02:27:23;16.96;75.47
64111;DHT22;50401;48.188;11.566;2023-06-10T02:29:48;17.20;74.85
64111;DHT22;50401;48.188;11.566;2023-06-10T02:32:13;17.22;74.56
64111;DHT22;50401;48.188;11.566;2023-06-10T02:34:39;17.37;74.20
64111;DHT22;50401;48.188;11.566;2023-06-10T02:37:05;17.47;73.76
64111;DHT22;50401;48.188;11.566;2023-06-10T02:39:30;17.55;73.47
64111;DHT22;50401;48.188;11.566;2023-06-10T02:41:56;17.55;73.56
64111;DHT22;50401;48.188;11.566;2023-06-10T02:44:21;17.58;73.38
64111;DHT22;50401;48.188;11.566;2023-06-10T02:46:46;17.65;73.22
64111;DHT22;50401;48.188;11.566;2023-06-10T02:49:12;17.69;73.02
64111;DHT22;50401;48.188;11.566;2023-06-10T02:51:38;17.71;72.93
64111;DHT22;50401;48.188;11.566;2023-06-10T02:54:04;17.72;72.90
64111;DHT22;50401;48.188;11.566;2023-06-10T02:56:30;17.65;73.00
64111;DHT22;50401;48.188;11.566;2023-06-10T02:58:55;17.64;73.02
64111;DHT22;50401;48.188;11.566;2023-06-10T03:01:21;17.65;72.96
64111;DHT22;50401;48.188;11.566;2023-06-10T03:03:46;17.69;72.88
64111;DHT22;50401;48.188;11.566;2023-06-10T03:06:12;17.61;72.97
64111;DHT22;50401;48.188;11.566;2023-06-10T03:08:38;17.54;73.11
64111;DHT22;50401;48.188;11.566;2023-06-10T03:11:04;17.54;73.13
64111;DHT22;50401;48.188;11.566;2023-06-10T03:13:30;17.44;73.31
64111;DHT22;50401;48.188;11.566;2023-06-10T03:15:55;17.48;73.22
64111;DHT22;50401;48.188;11.566;2023-06-10T03:18:25;17.47;73.34
64111;DHT22;50401;48.188;11.566;2023-06-10T03:20:51;17.31;73.82
64111;DHT22;50401;48.188;11.566;2023-06-10T03:23:16;17.22;73.97
64111;DHT22;50401;48.188;11.566;2023-06-10T03:25:42;17.15;74.28
64111;DHT22;50401;48.188;11.566;2023-06-10T03:28:07;17.03;74.74
64111;DHT22;50401;48.188;11.566;2023-06-10T03:30:33;17.03;74.85
64111;DHT22;50401;48.188;11.566;2023-06-10T03:32:58;17.15;74.68
64111;DHT22;50401;48.188;11.566;2023-06-10T03:35:23;17.06;74.78
64111;DHT22;50401;48.188;11.566;2023-06-10T03:37:49;17.12;74.84
64111;DHT22;50401;48.188;11.566;2023-06-10T03:40:14;17.03;75.14
64111;DHT22;50401;48.188;11.566;2023-06-10T03:42:39;17.06;75.19
64111;DHT22;50401;48.188;11.566;2023-06-10T03:45:05;17.08;75.16
64111;DHT22;50401;48.188;11.566;2023-06-10T03:47:34;16.95;75.44
64111;DHT22;50401;48.188;11.566;2023-06-10T03:50:01;16.95;75.65
64111;DHT22;50401;48.188;11.566;2023-06-10T03:52:28;17.02;75.53
64111;DHT22;50401;48.188;11.566;2023-06-10T03:54:53;17.06;75.48
64111;DHT22;50401;48.188;11.566;2023-06-10T03:57:19;17.17;75.25
64111;DHT22;50401;48.188;11.566;2023-06-10T03:59:44;17.23;75.02
64111;DHT22;50401;48.188;11.566;2023-06-10T04:02:10;17.23;75.04
64111;DHT22;50401;48.188;11.566;2023-06-10T04:04:35;17.31;75.09
64111;DHT22;50401;48.188;11.566;2023-06-10T04:07:03;17.43;74.93
64111;DHT22;50401;48.188;11.566;2023-06-10T04:09:28;17.44;74.87
64111;DHT22;50401;48.188;11.566;2023-06-10T04:11:53;17.52;74.63
64111;DHT22;50401;48.188;11.566;2023-06-10T04:14:19;17.57;74.64
64111;DHT22;50401;48.188;11.566;2023-06-10T04:16:44;17.50;74.83
64111;DHT22;50401;48.188;11.566;2023-06-10T04:19:10;17.35;75.18
64111;DHT22;50401;48.188;11.566;2023-06-10T04:21:35;17.45;75.18
64111;DHT22;50401;48.188;11.566;2023-06-10T04:24:01;17.50;74.98
64111;DHT22;50401;48.188;11.566;2023-06-10T04:26:27;17.62;74.81
64111;DHT22;50401;48.188;11.566;2023-06-10T04:28:52;17.67;74.65
64111;DHT22;50401;48.188;11.566;2023-06-10T04:31:18;17.74;74.57
64111;DHT22;50401;48.188;11.566;2023-06-10T04:33:43;17.75;74.81
64111;DHT22;50401;48.188;11.566;2023-06-10T04:36:08;17.78;74.82
64111;DHT22;50401;48.188;11.566;2023-06-10T04:38:34;17.89;74.42
64111;DHT22;50401;48.188;11.566;2023-06-10T04:40:59;18.04;74.03
64111;DHT22;50401;48.188;11.566;2023-06-10T04:43:25;18.17;73.80
64111;DHT22;50401;48.188;11.566;2023-06-10T04:45:50;18.45;73.20
64111;DHT22;50401;48.188;11.566;2023-06-10T04:48:15;18.51;73.09
64111;DHT22;50401;48.188;11.566;2023-06-10T04:50:41;18.73;72.47
64111;DHT22;50401;48.188;11.566;2023-06-10T04:53:06;18.95;72.05
64111;DHT22;50401;48.188;11.566;2023-06-10T04:55:32;19.11;71.59
64111;DHT22;50401;48.188;11.566;2023-06-10T04:57:59;19.21;71.43
64111;DHT22;50401;48.188;11.566;2023-06-10T05:00:24;19.41;70.97
64111;DHT22;50401;48.188;11.566;2023-06-10T05:02:50;18.37;74.01
64111;DHT22;50401;48.188;11.566;2023-06-10T05:05:17;19.07;72.52
64111;DHT22;50401;48.188;11.566;2023-06-10T05:07:42;19.59;70.75
64111;DHT22;50401;48.188;11.566;2023-06-10T05:10:08;18.28;74.30
64111;DHT22;50401;48.188;11.566;2023-06-10T05:12:33;19.06;72.91
64111;DHT22;50401;48.188;11.566;2023-06-10T05:14:59;18.43;74.17
64111;DHT22;50401;48.188;11.566;2023-06-10T05:17:24;18.65;73.40
64111;DHT22;50401;48.188;11.566;2023-06-10T05:19:50;18.52;74.17
64111;DHT22;50401;48.188;11.566;2023-06-10T05:22:16;18.72;73.37
64111;DHT22;50401;48.188;11.566;2023-06-10T05:24:43;20.08;70.52
64111;DHT22;50401;48.188;11.566;2023-06-10T05:27:09;19.31;72.12
64111;DHT22;50401;48.188;11.566;2023-06-10T05:29:34;20.93;68.24
64111;DHT22;50401;48.188;11.566;2023-06-10T05:32:00;20.65;68.75
64111;DHT22;50401;48.188;11.566;2023-06-10T05:34:29;21.18;67.44
64111;DHT22;50401;48.188;11.566;2023-06-10T05:36:54;21.25;67.37
64111;DHT22;50401;48.188;11.566;2023-06-10T05:39:19;22.11;64.10
64111;DHT22;50401;48.188;11.566;2023-06-10T05:41:46;21.57;65.52
64111;DHT22;50401;48.188;11.566;2023-06-10T05:44:11;21.70;66.06
64111;DHT22;50401;48.188;11.566;2023-06-10T05:46:37;22.68;62.93
64111;DHT22;50401;48.188;11.566;2023-06-10T05:49:02;23.65;60.17
64111;DHT22;50401;48.188;11.566;2023-06-10T05:51:28;24.50;58.11
64111;DHT22;50401;48.188;11.566;2023-06-10T05:53:54;24.08;57.72
64111;DHT22;50401;48.188;11.566;2023-06-10T05:56:19;23.85;59.94
64111;DHT22;50401;48.188;11.566;2023-06-10T05:58:46;24.58;57.58
64111;DHT22;50401;48.188;11.566;2023-06-10T06:01:11;25.05;56.23
64111;DHT22;50401;48.188;11.566;2023-06-10T06:03:37;25.43;55.34
64111;DHT22;50401;48.188;11.566;2023-06-10T06:06:03;25.82;54.28
64111;DHT22;50401;48.188;11.566;2023-06-10T06:08:29;26.52;52.76
64111;DHT22;50401;48.188;11.566;2023-06-10T06:10:54;26.90;51.50
64111;DHT22;50401;48.188;11.566;2023-06-10T06:13:20;27.11;51.15
64111;DHT22;50401;48.188;11.566;2023-06-10T06:15:45;26.40;52.16
64111;DHT22;50401;48.188;11.566;2023-06-10T06:18:10;25.16;55.13
64111;DHT22;50401;48.188;11.566;2023-06-10T06:20:36;24.01;58.45
64111;DHT22;50401;48.188;11.566;2023-06-10T06:23:01;23.56;60.05
64111;DHT22;50401;48.188;11.566;2023-06-10T06:25:26;24.36;57.43
64111;DHT22;50401;48.188;11.566;2023-06-10T06:27:52;22.90;61.24
64111;DHT22;50401;48.188;11.566;2023-06-10T06:30:17;23.04;60.40
64111;DHT22;50401;48.188;11.566;2023-06-10T06:32:43;22.22;63.20
64111;DHT22;50401;48.188;11.566;2023-06-10T06:35:08;22.94;61.26
64111;DHT22;50401;48.188;11.566;2023-06-10T06:37:34;23.18;61.16
64111;DHT22;50401;48.188;11.566;2023-06-10T06:40:00;23.65;60.13
64111;DHT22;50401;48.188;11.566;2023-06-10T06:42:25;24.72;56.98
64111;DHT22;50401;48.188;11.566;2023-06-10T06:44:50;24.50;56.63
64111;DHT22;50401;48.188;11.566;2023-06-10T06:47:16;24.74;56.51
64111;DHT22;50401;48.188;11.566;2023-06-10T06:49:45;23.64;58.67
64111;DHT22;50401;48.188;11.566;2023-06-10T06:52:10;24.16;58.46
64111;DHT22;50401;48.188;11.566;2023-06-10T06:54:35;26.14;53.07
64111;DHT22;50401;48.188;11.566;2023-06-10T06:57:01;27.73;49.22
64111;DHT22;50401;48.188;11.566;2023-06-10T06:59:27;29.14;46.50
64111;DHT22;50401;48.188;11.566;2023-06-10T07:01:52;28.82;46.90
64111;DHT22;50401;48.188;11.566;2023-06-10T07:04:19;28.00;48.20
64111;DHT22;50401;48.188;11.566;2023-06-10T07:06:47;28.04;48.31
64111;DHT22;50401;48.188;11.566;2023-06-10T07:09:12;26.04;52.07
64111;DHT22;50401;48.188;11.566;2023-06-10T07:11:37;25.95;52.52
64111;DHT22;50401;48.188;11.566;2023-06-10T07:14:03;27.28;49.68
64111;DHT22;50401;48.188;11.566;2023-06-10T07:16:28;28.86;46.05
64111;DHT22;50401;48.188;11.566;2023-06-10T07:18:54;27.83;47.47
64111;DHT22;50401;48.188;11.566;2023-06-10T07:21:19;25.17;54.26
64111;DHT22;50401;48.188;11.566;2023-06-10T07:23:45;23.85;58.15
64111;DHT22;50401;48.188;11.566;2023-06-10T07:26:11;23.75;58.98
64111;DHT22;50401;48.188;11.566;2023-06-10T07:28:39;25.74;53.87
64111;DHT22;50401;48.188;11.566;2023-06-10T07:31:04;27.74;48.63
64111;DHT22;50401;48.188;11.566;2023-06-10T07:33:30;28.32;47.67
64111;DHT22;50401;48.188;11.566;2023-06-10T07:35:55;29.41;44.31
64111;DHT22;50401;48.188;11.566;2023-06-10T07:38:21;30.43;42.29
64111;DHT22;50401;48.188;11.566;2023-06-10T07:40:46;31.23;40.60
64111;DHT22;50401;48.188;11.566;2023-06-10T07:43:12;31.54;40.17
64111;DHT22;50401;48.188;11.566;2023-06-10T07:45:40;32.04;39.50
64111;DHT22;50401;48.188;11.566;2023-06-10T07:48:05;31.01;41.24
64111;DHT22;50401;48.188;11.566;2023-06-10T07:50:31;30.39;41.55
64111;DHT22;50401;48.188;11.566;2023-06-10T07:52:56;32.12;39.31
64111;DHT22;50401;48.188;11.566;2023-06-10T07:55:21;31.57;39.77
64111;DHT22;50401;48.188;11.566;2023-06-10T07:57:47;32.64;38.19
64111;DHT22;50401;48.188;11.566;2023-06-10T08:00:12;32.68;38.25
64111;DHT22;50401;48.188;11.566;2023-06-10T08:02:38;32.32;37.87
64111;DHT22;50401;48.188;11.566;2023-06-10T08:05:04;31.38;40.04
64111;DHT22;50401;48.188;11.566;2023-06-10T08:07:29;31.43;40.22
64111;DHT22;50401;48.188;11.566;2023-06-10T08:09:56;28.62;44.79
64111;DHT22;50401;48.188;11.566;2023-06-10T08:12:21;25.97;50.73
64111;DHT22;50401;48.188;11.566;2023-06-10T08:14:46;28.28;46.51
64111;DHT22;50401;48.188;11.566;2023-06-10T08:17:12;29.35;44.56
64111;DHT22;50401;48.188;11.566;2023-06-10T08:19:37;29.84;43.78
64111;DHT22;50401;48.188;11.566;2023-06-10T08:22:03;27.23;47.53
64111;DHT22;50401;48.188;11.566;2023-06-10T08:24:28;27.74;46.85
64111;DHT22;50401;48.188;11.566;2023-06-10T08:26:54;28.18;46.58
64111;DHT22;50401;48.188;11.566;2023-06-10T08:29:21;26.61;49.55
64111;DHT22;50401;48.188;11.566;2023-06-10T08:31:47;27.96;46.88
64111;DHT22;50401;48.188;11.566;2023-06-10T08:34:12;24.85;52.73
64111;DHT22;50401;48.188;11.566;2023-06-10T08:36:37;25.76;50.99
64111;DHT22;50401;48.188;11.566;2023-06-10T08:39:03;26.21;50.16
64111;DHT22;50401;48.188;11.566;2023-06-10T08:41:30;26.54;48.27
64111;DHT22;50401;48.188;11.566;2023-06-10T08:44:08;25.20;52.11
64111;DHT22;50401;48.188;11.566;2023-06-10T08:46:36;24.64;53.34
64111;DHT22;50401;48.188;11.566;2023-06-10T08:49:06;24.60;54.79
64111;DHT22;50401;48.188;11.566;2023-06-10T08:51:35;23.82;56.67
64111;DHT22;50401;48.188;11.566;2023-06-10T08:54:10;25.24;54.28
64111;DHT22;50401;48.188;11.566;2023-06-10T08:56:39;26.80;50.08
64111;DHT22;50401;48.188;11.566;2023-06-10T08:59:05;27.38;48.71
64111;DHT22;50401;48.188;11.566;2023-06-10T09:01:30;26.00;51.61
64111;DHT22;50401;48.188;11.566;2023-06-10T09:03:57;25.76;52.36
64111;DHT22;50401;48.188;11.566;2023-06-10T09:06:25;26.47;51.29
64111;DHT22;50401;48.188;11.566;2023-06-10T09:08:50;25.15;54.47
64111;DHT22;50401;48.188;11.566;2023-06-10T09:11:16;26.30;51.92
64111;DHT22;50401;48.188;11.566;2023-06-10T09:13:41;25.65;52.94
64111;DHT22;50401;48.188;11.566;2023-06-10T09:16:07;23.57;57.94
64111;DHT22;50401;48.188;11.566;2023-06-10T09:18:33;24.96;54.49
64111;DHT22;50401;48.188;11.566;2023-06-10T09:20:59;24.51;55.14
64111;DHT22;50401;48.188;11.566;2023-06-10T09:23:25;25.15;53.70
64111;DHT22;50401;48.188;11.566;2023-06-10T09:25:57;25.82;52.70
64111;DHT22;50401;48.188;11.566;2023-06-10T09:28:23;26.20;50.75
64111;DHT22;50401;48.188;11.566;2023-06-10T09:30:49;25.47;52.24
64111;DHT22;50401;48.188;11.566;2023-06-10T09:33:15;25.23;52.20
64111;DHT22;50401;48.188;11.566;2023-06-10T09:35:48;25.90;50.79
64111;DHT22;50401;48.188;11.566;2023-06-10T09:38:19;26.48;49.32
64111;DHT22;50401;48.188;11.566;2023-06-10T09:40:52;24.36;53.23
64111;DHT22;50401;48.188;11.566;2023-06-10T09:43:18;24.05;55.27
64111;DHT22;50401;48.188;11.566;2023-06-10T09:45:44;24.20;54.98
64111;DHT22;50401;48.188;11.566;2023-06-10T09:48:09;24.04;55.25
64111;DHT22;50401;48.188;11.566;2023-06-10T09:50:44;23.92;55.28
64111;DHT22;50401;48.188;11.566;2023-06-10T09:53:11;24.53;54.55
64111;DHT22;50401;48.188;11.566;2023-06-10T09:55:41;25.68;51.76
64111;DHT22;50401;48.188;11.566;2023-06-10T09:58:06;24.86;53.66
64111;DHT22;50401;48.188;11.566;2023-06-10T10:00:33;25.30;52.51
64111;DHT22;50401;48.188;11.566;2023-06-10T10:02:59;24.91;53.00
64111;DHT22;50401;48.188;11.566;2023-06-10T10:05:25;24.43;53.23
64111;DHT22;50401;48.188;11.566;2023-06-10T10:07:51;25.06;52.92
64111;DHT22;50401;48.188;11.566;2023-06-10T10:10:19;25.65;50.80
64111;DHT22;50401;48.188;11.566;2023-06-10T10:12:47;25.02;52.75
64111;DHT22;50401;48.188;11.566;2023-06-10T10:15:13;25.22;52.28
64111;DHT22;50401;48.188;11.566;2023-06-10T10:17:46;25.38;52.18
64111;DHT22;50401;48.188;11.566;2023-06-10T10:20:14;25.79;50.74
64111;DHT22;50401;48.188;11.566;2023-06-10T10:22:43;25.61;50.73
64111;DHT22;50401;48.188;11.566;2023-06-10T10:25:29;25.35;51.09
64111;DHT22;50401;48.188;11.566;2023-06-10T10:27:59;25.24;50.81
64111;DHT22;50401;48.188;11.566;2023-06-10T10:30:25;25.31;51.47
64111;DHT22;50401;48.188;11.566;2023-06-10T10:33:04;25.67;51.19
64111;DHT22;50401;48.188;11.566;2023-06-10T10:35:32;25.51;50.94
64111;DHT22;50401;48.188;11.566;2023-06-10T10:37:58;24.26;53.39
64111;DHT22;50401;48.188;11.566;2023-06-10T10:40:25;23.57;53.78
64111;DHT22;50401;48.188;11.566;2023-06-10T10:42:51;23.81;53.97
64111;DHT22;50401;48.188;11.566;2023-06-10T10:45:18;24.43;53.51
64111;DHT22;50401;48.188;11.566;2023-06-10T10:47:52;24.72;52.62
64111;DHT22;50401;48.188;11.566;2023-06-10T10:50:19;23.85;53.42
64111;DHT22;50401;48.188;11.566;2023-06-10T10:52:56;24.17;52.93
64111;DHT22;50401;48.188;11.566;2023-06-10T10:55:25;24.68;52.61
64111;DHT22;50401;48.188;11.566;2023-06-10T10:58:05;25.05;53.00
64111;DHT22;50401;48.188;11.566;2023-06-10T11:00:32;25.10;51.95
64111;DHT22;50401;48.188;11.566;2023-06-10T11:03:07;25.00;52.14
64111;DHT22;50401;48.188;11.566;2023-06-10T11:05:39;24.96;52.39
64111;DHT22;50401;48.188;11.566;2023-06-10T11:08:07;24.89;52.56
64111;DHT22;50401;48.188;11.566;2023-06-10T11:10:37;24.96;52.25
64111;DHT22;50401;48.188;11.566;2023-06-10T11:15:33;25.03;51.30
64111;DHT22;50401;48.188;11.566;2023-06-10T11:28:38;25.47;52.58
64111;DHT22;50401;48.188;11.566;2023-06-10T11:31:04;25.38;52.33
64111;DHT22;50401;48.188;11.566;2023-06-10T11:33:31;25.33;52.62
64111;DHT22;50401;48.188;11.566;2023-06-10T11:35:56;24.99;52.25
64111;DHT22;50401;48.188;11.566;2023-06-10T11:38:23;24.81;53.07
64111;DHT22;50401;48.188;11.566;2023-06-10T11:40:49;24.85;52.81
64111;DHT22;50401;48.188;11.566;2023-06-10T11:43:16;24.74;51.95
64111;DHT22;50401;48.188;11.566;2023-06-10T11:45:42;24.08;52.71
64111;DHT22;50401;48.188;11.566;2023-06-10T11:48:09;24.32;52.70
64111;DHT22;50401;48.188;11.566;2023-06-10T11:50:35;24.49;52.45
64111;DHT22;50401;48.188;11.566;2023-06-10T11:53:00;24.85;52.32
64111;DHT22;50401;48.188;11.566;2023-06-10T11:55:41;24.93;53.23
64111;DHT22;50401;48.188;11.566;2023-06-10T11:58:17;24.78;53.65
64111;DHT22;50401;48.188;11.566;2023-06-10T12:00:49;24.71;54.05
64111;DHT22;50401;48.188;11.566;2023-06-10T12:03:16;24.74;54.39
64111;DHT22;50401;48.188;11.566;2023-06-10T12:06:13;24.67;54.38
64111;DHT22;50401;48.188;11.566;2023-06-10T12:08:43;24.63;54.52
64111;DHT22;50401;48.188;11.566;2023-06-10T12:11:08;24.50;53.94
64111;DHT22;50401;48.188;11.566;2023-06-10T12:13:34;24.51;54.24
64111;DHT22;50401;48.188;11.566;2023-06-10T12:16:09;24.56;53.89
64111;DHT22;50401;48.188;11.566;2023-06-10T12:18:35;24.64;53.04
64111;DHT22;50401;48.188;11.566;2023-06-10T12:21:00;24.78;52.26
64111;DHT22;50401;48.188;11.566;2023-06-10T12:23:26;24.81;51.71
64111;DHT22;50401;48.188;11.566;2023-06-10T12:25:55;24.88;51.66
64111;DHT22;50401;48.188;11.566;2023-06-10T12:28:25;24.44;52.41
64111;DHT22;50401;48.188;11.566;2023-06-10T12:30:51;24.53;52.07
64111;DHT22;50401;48.188;11.566;2023-06-10T12:33:23;24.57;51.69
64111;DHT22;50401;48.188;11.566;2023-06-10T12:38:14;24.16;52.37
64111;DHT22;50401;48.188;11.566;2023-06-10T12:40:45;24.68;52.90
64111;DHT22;50401;48.188;11.566;2023-06-10T12:43:11;24.88;52.58
64111;DHT22;50401;48.188;11.566;2023-06-10T12:45:38;24.91;52.55
64111;DHT22;50401;48.188;11.566;2023-06-10T12:48:09;24.82;52.49
64111;DHT22;50401;48.188;11.566;2023-06-10T12:50:36;24.60;51.03
64111;DHT22;50401;48.188;11.566;2023-06-10T12:53:03;24.47;51.22
64111;DHT22;50401;48.188;11.566;2023-06-10T12:55:28;24.65;51.06
64111;DHT22;50401;48.188;11.566;2023-06-10T12:57:54;24.79;54.23
64111;DHT22;50401;48.188;11.566;2023-06-10T13:00:20;24.51;55.77
64111;DHT22;50401;48.188;11.566;2023-06-10T13:02:47;24.47;55.85
64111;DHT22;50401;48.188;11.566;2023-06-10T13:05:13;24.57;55.69
64111;DHT22;50401;48.188;11.566;2023-06-10T13:07:38;24.50;55.63
64111;DHT22;50401;48.188;11.566;2023-06-10T13:10:04;24.40;56.33
64111;DHT22;50401;48.188;11.566;2023-06-10T13:12:30;24.29;57.08
64111;DHT22;50401;48.188;11.566;2023-06-10T13:14:56;24.39;56.67
64111;DHT22;50401;48.188;11.566;2023-06-10T13:17:23;24.43;56.07
64111;DHT22;50401;48.188;11.566;2023-06-10T13:19:49;24.40;55.75
64111;DHT22;50401;48.188;11.566;2023-06-10T13:22:15;24.44;55.32
64111;DHT22;50401;48.188;11.566;2023-06-10T13:24:40;24.50;54.50
64111;DHT22;50401;48.188;11.566;2023-06-10T13:27:06;24.36;54.53
64111;DHT22;50401;48.188;11.566;2023-06-10T13:29:32;24.16;55.05
64111;DHT22;50401;48.188;11.566;2023-06-10T13:31:57;24.39;54.24
64111;DHT22;50401;48.188;11.566;2023-06-10T13:34:23;24.34;54.00
64111;DHT22;50401;48.188;11.566;2023-06-10T13:36:48;24.20;54.10
64111;DHT22;50401;48.188;11.566;2023-06-10T13:39:14;23.98;54.96
64111;DHT22;50401;48.188;11.566;2023-06-10T13:41:40;24.13;54.31
64111;DHT22;50401;48.188;11.566;2023-06-10T13:44:06;24.24;53.97
64111;DHT22;50401;48.188;11.566;2023-06-10T13:46:32;24.34;53.86
64111;DHT22;50401;48.188;11.566;2023-06-10T13:48:57;24.16;53.39
64111;DHT22;50401;48.188;11.566;2023-06-10T13:51:23;24.29;53.47
64111;DHT22;50401;48.188;11.566;2023-06-10T13:53:48;24.44;53.65
64111;DHT22;50401;48.188;11.566;2023-06-10T13:56:13;24.37;54.37
64111;DHT22;50401;48.188;11.566;2023-06-10T13:58:39;24.37;53.87
64111;DHT22;50401;48.188;11.566;2023-06-10T14:01:06;24.43;54.47
64111;DHT22;50401;48.188;11.566;2023-06-10T14:03:32;24.30;53.75
64111;DHT22;50401;48.188;11.566;2023-06-10T14:05:57;24.10;54.85
64111;DHT22;50401;48.188;11.566;2023-06-10T14:08:23;24.06;54.49
64111;DHT22;50401;48.188;11.566;2023-06-10T14:10:48;23.91;55.06
64111;DHT22;50401;48.188;11.566;2023-06-10T14:13:16;24.02;54.78
64111;DHT22;50401;48.188;11.566;2023-06-10T14:15:41;24.26;55.43
64111;DHT22;50401;48.188;11.566;2023-06-10T14:18:06;24.41;55.46
64111;DHT22;50401;48.188;11.566;2023-06-10T14:20:32;24.44;55.08
64111;DHT22;50401;48.188;11.566;2023-06-10T14:22:57;24.36;54.62
64111;DHT22;50401;48.188;11.566;2023-06-10T14:25:24;24.22;54.78
64111;DHT22;50401;48.188;11.566;2023-06-10T14:27:49;24.17;53.93
64111;DHT22;50401;48.188;11.566;2023-06-10T14:30:15;24.17;53.35
64111;DHT22;50401;48.188;11.566;2023-06-10T14:32:41;24.27;53.60
64111;DHT22;50401;48.188;11.566;2023-06-10T14:35:07;24.17;53.86
64111;DHT22;50401;48.188;11.566;2023-06-10T14:37:32;24.27;54.17
64111;DHT22;50401;48.188;11.566;2023-06-10T14:39:58;24.29;54.63
64111;DHT22;50401;48.188;11.566;2023-06-10T14:42:23;24.12;54.08
64111;DHT22;50401;48.188;11.566;2023-06-10T14:44:49;24.19;52.87
64111;DHT22;50401;48.188;11.566;2023-06-10T14:47:15;24.17;52.63
64111;DHT22;50401;48.188;11.566;2023-06-10T14:49:40;24.23;52.85
64111;DHT22;50401;48.188;11.566;2023-06-10T14:52:07;24.20;52.89
64111;DHT22;50401;48.188;11.566;2023-06-10T14:54:33;23.88;54.04
64111;DHT22;50401;48.188;11.566;2023-06-10T14:56:58;24.06;53.87
64111;DHT22;50401;48.188;11.566;2023-06-10T14:59:24;24.24;53.73
64111;DHT22;50401;48.188;11.566;2023-06-10T15:01:49;24.27;53.02
64111;DHT22;50401;48.188;11.566;2023-06-10T15:04:15;24.57;52.43
64111;DHT22;50401;48.188;11.566;2023-06-10T15:06:40;24.69;53.55
64111;DHT22;50401;48.188;11.566;2023-06-10T15:09:07;24.41;55.17
64111;DHT22;50401;48.188;11.566;2023-06-10T15:11:32;24.67;54.79
64111;DHT22;50401;48.188;11.566;2023-06-10T15:13:59;24.82;54.26
64111;DHT22;50401;48.188;11.566;2023-06-10T15:16:24;24.60;54.48
64111;DHT22;50401;48.188;11.566;2023-06-10T15:18:49;24.82;53.74
64111;DHT22;50401;48.188;11.566;2023-06-10T15:21:15;24.95;52.65
64111;DHT22;50401;48.188;11.566;2023-06-10T15:23:41;24.99;52.22
64111;DHT22;50401;48.188;11.566;2023-06-10T15:26:06;24.98;51.65
64111;DHT22;50401;48.188;11.566;2023-06-10T15:28:31;24.64;51.98
64111;DHT22;50401;48.188;11.566;2023-06-10T15:30:57;24.79;51.80